Airfield :
LOGIN :

Register | Disclaimer

   EN    FR    IT 

 










Legend :    VFR   Marginal VFR   IFR   Intensive IFR   Very Intensive IFR
Visi :
Ceiling :
>= 8 km
>= 3000ft
5 to 8 km
1000 to 3000 ft
1500m to 5 km
500 to 1000 ft
800 to 1500m
200 to 500 ft
< 800m
< 200 ft
Symbols :   Thunderstorms  Fog  Heavy snow  Heavy precipitations  Wind > 20 kt
SIGMETs :     Misc.  Thunderstorms  Icing  Turbulence  Mountain Waves  Volcanic Ashes






- Airport Elevation : 203 ft
- IATA code : XMJ


LFBM - Mont-De-Marsan

CURRENT METAR :
  • 151230Z AUTO 36011KT 9999 OVC006/// ///TCU 05/05 Q1000 TEMPO 4000 SHRA BKN010 BKN020 BKN030CB

EXPIRED METARs :
  • 151200Z AUTO 35009KT 7000 -RADZ BKN005/// OVC015/// ///TCU 05/05 Q1000 TEMPO 4000 SHRA BKN010 BKN020 BKN030CB
  • 151130Z AUTO 35008KT 6000 -RA SCT007/// OVC013/// ///CB 06/05 Q0999
  • 151100Z AUTO 26004KT 230V310 9999 -RA BKN010/// BKN015/// OVC021/// ///TCU 07/06 Q0999 TEMPO 4000 SHRA BKN010 BKN020 BKN030CB
  • 151030Z AUTO VRB03KT 9999 SCT017/// BKN029/// BKN036/// ///TCU 07/06 Q0999 TEMPO 4000 SHRA BKN010 BKN020 BKN030CB
  • 151000Z AUTO VRB02KT 9999 -RA FEW021/// BKN034/// BKN066/// ///TCU 07/06 Q0998 TEMPO 4000 SHRA BKN010 BKN020 BKN030CB

TAF TAF LFBM
Valid from the 15 at 09:00 until the 16 at 09:00 UTC


150800Z 1509/1609 VRB10KT 9999 SCT010 BKN025 BKN030CB
TEMPO 1509/1518 4000 SHRA BKN010 BKN020 BKN030CB
BECMG 1518/1521 20005KT 3000 BR BKN006 BKN040
PROB30
TEMPO 1600/1607 0600 FG VV///
BECMG 1607/1609 23010G20KT 4000 SHRA BKN008 BKN015 BKN030TCU



MET'MAP, your aeronautical weather chart ! - Copyright ORBIFLY December 2007 - Disclaimer

ORBIFLY MET'MAP TEAM :

Programming & Development : Alexandra Zaïnal
Concept & Development : Baudouin d'Aumeries
Co-Development & Prog : Marc-Olivier Méhu
Technical & hardware support : Manuel Goepfert

Contact : metmap@orbifly.com




SOURCES & CREDITS :

   NOAA